sensor_id;sensor_type;location;lat;lon;timestamp;P1;durP1;ratioP1;P2;durP2;ratioP2
15841;SDS011;8021;48.022;11.812;2022-08-03T00:01:27;0.20;;;0.20;;
15841;SDS011;8021;48.022;11.812;2022-08-03T00:03:56;0.20;;;0.20;;
15841;SDS011;8021;48.022;11.812;2022-08-03T00:06:24;0.20;;;0.10;;
15841;SDS011;8021;48.022;11.812;2022-08-03T00:08:52;0.20;;;0.20;;
15841;SDS011;8021;48.022;11.812;2022-08-03T00:11:19;0.20;;;0.20;;
15841;SDS011;8021;48.022;11.812;2022-08-03T00:13:47;0.20;;;0.20;;
15841;SDS011;8021;48.022;11.812;2022-08-03T00:16:14;0.20;;;0.20;;
15841;SDS011;8021;48.022;11.812;2022-08-03T00:18:42;0.20;;;0.20;;
15841;SDS011;8021;48.022;11.812;2022-08-03T00:21:11;0.20;;;0.20;;
15841;SDS011;8021;48.022;11.812;2022-08-03T00:23:40;0.20;;;0.20;;
15841;SDS011;8021;48.022;11.812;2022-08-03T00:26:17;0.20;;;0.10;;
15841;SDS011;8021;48.022;11.812;2022-08-03T00:28:44;0.20;;;0.10;;
15841;SDS011;8021;48.022;11.812;2022-08-03T00:31:12;0.20;;;0.20;;
15841;SDS011;8021;48.022;11.812;2022-08-03T00:33:39;0.20;;;0.20;;
15841;SDS011;8021;48.022;11.812;2022-08-03T00:36:26;0.10;;;0.10;;
15841;SDS011;8021;48.022;11.812;2022-08-03T00:38:54;0.20;;;0.20;;
15841;SDS011;8021;48.022;11.812;2022-08-03T00:41:22;0.20;;;0.10;;
15841;SDS011;8021;48.022;11.812;2022-08-03T00:43:49;0.20;;;0.20;;
15841;SDS011;8021;48.022;11.812;2022-08-03T00:46:17;0.20;;;0.17;;
15841;SDS011;8021;48.022;11.812;2022-08-03T00:48:47;0.20;;;0.20;;
15841;SDS011;8021;48.022;11.812;2022-08-03T00:51:15;0.30;;;0.30;;
15841;SDS011;8021;48.022;11.812;2022-08-03T00:53:44;0.20;;;0.20;;
15841;SDS011;8021;48.022;11.812;2022-08-03T00:56:12;0.20;;;0.20;;
15841;SDS011;8021;48.022;11.812;2022-08-03T00:58:39;0.10;;;0.10;;
15841;SDS011;8021;48.022;11.812;2022-08-03T01:01:07;0.30;;;0.20;;
15841;SDS011;8021;48.022;11.812;2022-08-03T01:03:35;0.20;;;0.20;;
15841;SDS011;8021;48.022;11.812;2022-08-03T01:06:04;0.20;;;0.20;;
15841;SDS011;8021;48.022;11.812;2022-08-03T01:08:36;0.20;;;0.20;;
15841;SDS011;8021;48.022;11.812;2022-08-03T01:11:09;0.20;;;0.20;;
15841;SDS011;8021;48.022;11.812;2022-08-03T01:13:40;0.20;;;0.20;;
15841;SDS011;8021;48.022;11.812;2022-08-03T01:16:31;0.30;;;0.20;;
15841;SDS011;8021;48.022;11.812;2022-08-03T01:19:06;0.20;;;0.20;;
15841;SDS011;8021;48.022;11.812;2022-08-03T01:21:39;0.30;;;0.20;;
15841;SDS011;8021;48.022;11.812;2022-08-03T01:24:16;0.20;;;0.20;;
15841;SDS011;8021;48.022;11.812;2022-08-03T01:26:50;0.20;;;0.20;;
15841;SDS011;8021;48.022;11.812;2022-08-03T01:29:32;0.20;;;0.20;;
15841;SDS011;8021;48.022;11.812;2022-08-03T01:32:04;0.20;;;0.20;;
15841;SDS011;8021;48.022;11.812;2022-08-03T01:34:56;0.20;;;0.20;;
15841;SDS011;8021;48.022;11.812;2022-08-03T01:37:25;0.20;;;0.10;;
15841;SDS011;8021;48.022;11.812;2022-08-03T01:39:54;0.20;;;0.20;;
15841;SDS011;8021;48.022;11.812;2022-08-03T01:42:24;0.20;;;0.20;;
15841;SDS011;8021;48.022;11.812;2022-08-03T01:44:53;0.30;;;0.20;;
15841;SDS011;8021;48.022;11.812;2022-08-03T01:47:21;0.20;;;0.20;;
15841;SDS011;8021;48.022;11.812;2022-08-03T01:49:50;0.20;;;0.20;;
15841;SDS011;8021;48.022;11.812;2022-08-03T01:52:19;0.20;;;0.10;;
15841;SDS011;8021;48.022;11.812;2022-08-03T01:54:48;0.20;;;0.20;;
15841;SDS011;8021;48.022;11.812;2022-08-03T01:57:16;0.20;;;0.20;;
15841;SDS011;8021;48.022;11.812;2022-08-03T01:59:44;0.30;;;0.20;;
15841;SDS011;8021;48.022;11.812;2022-08-03T02:02:15;0.20;;;0.20;;
15841;SDS011;8021;48.022;11.812;2022-08-03T02:04:59;0.20;;;0.20;;
15841;SDS011;8021;48.022;11.812;2022-08-03T02:07:27;0.20;;;0.20;;
15841;SDS011;8021;48.022;11.812;2022-08-03T02:09:55;0.20;;;0.20;;
15841;SDS011;8021;48.022;11.812;2022-08-03T02:12:25;0.20;;;0.20;;
15841;SDS011;8021;48.022;11.812;2022-08-03T02:14:53;0.20;;;0.20;;
15841;SDS011;8021;48.022;11.812;2022-08-03T02:17:26;0.20;;;0.10;;
15841;SDS011;8021;48.022;11.812;2022-08-03T02:20:05;0.20;;;0.20;;
15841;SDS011;8021;48.022;11.812;2022-08-03T02:22:33;0.20;;;0.20;;
15841;SDS011;8021;48.022;11.812;2022-08-03T02:25:01;0.20;;;0.20;;
15841;SDS011;8021;48.022;11.812;2022-08-03T02:27:29;0.20;;;0.20;;
15841;SDS011;8021;48.022;11.812;2022-08-03T02:30:01;0.25;;;0.20;;
15841;SDS011;8021;48.022;11.812;2022-08-03T02:32:31;0.20;;;0.20;;
15841;SDS011;8021;48.022;11.812;2022-08-03T02:35:01;0.30;;;0.20;;
15841;SDS011;8021;48.022;11.812;2022-08-03T02:37:30;0.20;;;0.20;;
15841;SDS011;8021;48.022;11.812;2022-08-03T02:40:00;0.20;;;0.20;;
15841;SDS011;8021;48.022;11.812;2022-08-03T02:42:28;0.20;;;0.20;;
15841;SDS011;8021;48.022;11.812;2022-08-03T02:44:57;0.20;;;0.20;;
15841;SDS011;8021;48.022;11.812;2022-08-03T02:47:26;0.20;;;0.20;;
15841;SDS011;8021;48.022;11.812;2022-08-03T02:50:15;0.20;;;0.20;;
15841;SDS011;8021;48.022;11.812;2022-08-03T02:52:43;0.20;;;0.20;;
15841;SDS011;8021;48.022;11.812;2022-08-03T02:55:12;0.30;;;0.20;;
15841;SDS011;8021;48.022;11.812;2022-08-03T02:57:41;0.20;;;0.20;;
15841;SDS011;8021;48.022;11.812;2022-08-03T03:00:10;0.20;;;0.10;;
15841;SDS011;8021;48.022;11.812;2022-08-03T03:02:52;0.20;;;0.13;;
15841;SDS011;8021;48.022;11.812;2022-08-03T03:05:22;0.20;;;0.20;;
15841;SDS011;8021;48.022;11.812;2022-08-03T03:08:10;0.20;;;0.20;;
15841;SDS011;8021;48.022;11.812;2022-08-03T03:10:44;0.20;;;0.20;;
15841;SDS011;8021;48.022;11.812;2022-08-03T03:13:12;0.20;;;0.20;;
15841;SDS011;8021;48.022;11.812;2022-08-03T03:15:41;0.20;;;0.20;;
15841;SDS011;8021;48.022;11.812;2022-08-03T03:18:09;0.20;;;0.20;;
15841;SDS011;8021;48.022;11.812;2022-08-03T03:20:39;0.30;;;0.20;;
15841;SDS011;8021;48.022;11.812;2022-08-03T03:23:07;0.20;;;0.10;;
15841;SDS011;8021;48.022;11.812;2022-08-03T03:25:35;0.20;;;0.20;;
15841;SDS011;8021;48.022;11.812;2022-08-03T03:28:04;0.30;;;0.20;;
15841;SDS011;8021;48.022;11.812;2022-08-03T03:30:31;0.20;;;0.20;;
15841;SDS011;8021;48.022;11.812;2022-08-03T03:32:59;0.22;;;0.20;;
15841;SDS011;8021;48.022;11.812;2022-08-03T03:35:29;0.30;;;0.20;;
15841;SDS011;8021;48.022;11.812;2022-08-03T03:38:05;0.30;;;0.25;;
15841;SDS011;8021;48.022;11.812;2022-08-03T03:40:33;0.30;;;0.20;;
15841;SDS011;8021;48.022;11.812;2022-08-03T03:43:01;0.20;;;0.20;;
15841;SDS011;8021;48.022;11.812;2022-08-03T03:45:29;0.20;;;0.20;;
15841;SDS011;8021;48.022;11.812;2022-08-03T03:47:58;0.30;;;0.20;;
15841;SDS011;8021;48.022;11.812;2022-08-03T03:50:26;0.20;;;0.20;;
15841;SDS011;8021;48.022;11.812;2022-08-03T03:52:54;0.30;;;0.20;;
15841;SDS011;8021;48.022;11.812;2022-08-03T03:55:23;0.30;;;0.30;;
15841;SDS011;8021;48.022;11.812;2022-08-03T03:57:50;0.20;;;0.20;;
15841;SDS011;8021;48.022;11.812;2022-08-03T04:00:18;0.30;;;0.30;;
15841;SDS011;8021;48.022;11.812;2022-08-03T04:02:46;0.30;;;0.20;;
15841;SDS011;8021;48.022;11.812;2022-08-03T04:05:14;0.30;;;0.20;;
15841;SDS011;8021;48.022;11.812;2022-08-03T04:08:00;0.30;;;0.20;;
15841;SDS011;8021;48.022;11.812;2022-08-03T04:10:53;0.20;;;0.20;;
15841;SDS011;8021;48.022;11.812;2022-08-03T04:13:25;0.30;;;0.20;;
15841;SDS011;8021;48.022;11.812;2022-08-03T04:15:53;0.20;;;0.20;;
15841;SDS011;8021;48.022;11.812;2022-08-03T04:18:22;0.20;;;0.20;;
15841;SDS011;8021;48.022;11.812;2022-08-03T04:20:50;0.20;;;0.20;;
15841;SDS011;8021;48.022;11.812;2022-08-03T04:23:19;0.20;;;0.20;;
15841;SDS011;8021;48.022;11.812;2022-08-03T04:25:48;0.30;;;0.20;;
15841;SDS011;8021;48.022;11.812;2022-08-03T04:28:18;0.20;;;0.20;;
15841;SDS011;8021;48.022;11.812;2022-08-03T04:30:58;0.30;;;0.20;;
15841;SDS011;8021;48.022;11.812;2022-08-03T04:33:26;0.20;;;0.10;;
15841;SDS011;8021;48.022;11.812;2022-08-03T04:35:56;0.20;;;0.20;;
15841;SDS011;8021;48.022;11.812;2022-08-03T04:38:29;0.20;;;0.20;;
15841;SDS011;8021;48.022;11.812;2022-08-03T04:40:58;0.20;;;0.20;;
15841;SDS011;8021;48.022;11.812;2022-08-03T04:46:21;0.20;;;0.20;;
15841;SDS011;8021;48.022;11.812;2022-08-03T04:48:49;0.20;;;0.20;;
15841;SDS011;8021;48.022;11.812;2022-08-03T04:51:17;0.20;;;0.20;;
15841;SDS011;8021;48.022;11.812;2022-08-03T04:53:45;0.20;;;0.20;;
15841;SDS011;8021;48.022;11.812;2022-08-03T04:56:13;0.20;;;0.10;;
15841;SDS011;8021;48.022;11.812;2022-08-03T04:58:41;0.10;;;0.10;;
15841;SDS011;8021;48.022;11.812;2022-08-03T05:01:09;0.10;;;0.10;;
15841;SDS011;8021;48.022;11.812;2022-08-03T05:03:36;0.10;;;0.10;;
15841;SDS011;8021;48.022;11.812;2022-08-03T05:06:04;0.00;;;0.00;;
15841;SDS011;8021;48.022;11.812;2022-08-03T05:08:37;0.10;;;0.10;;
15841;SDS011;8021;48.022;11.812;2022-08-03T05:11:15;0.00;;;0.00;;
15841;SDS011;8021;48.022;11.812;2022-08-03T05:13:43;0.00;;;0.00;;
15841;SDS011;8021;48.022;11.812;2022-08-03T05:16:11;0.00;;;0.00;;
15841;SDS011;8021;48.022;11.812;2022-08-03T05:18:39;0.00;;;0.00;;
15841;SDS011;8021;48.022;11.812;2022-08-03T05:21:07;0.00;;;0.00;;
15841;SDS011;8021;48.022;11.812;2022-08-03T05:23:35;0.00;;;0.00;;
15841;SDS011;8021;48.022;11.812;2022-08-03T05:26:03;0.00;;;0.00;;
15841;SDS011;8021;48.022;11.812;2022-08-03T05:28:32;0.00;;;0.00;;
15841;SDS011;8021;48.022;11.812;2022-08-03T05:30:59;0.00;;;0.00;;
15841;SDS011;8021;48.022;11.812;2022-08-03T05:33:27;0.00;;;0.00;;
15841;SDS011;8021;48.022;11.812;2022-08-03T05:35:54;0.00;;;0.00;;
15841;SDS011;8021;48.022;11.812;2022-08-03T05:38:29;0.00;;;0.00;;
15841;SDS011;8021;48.022;11.812;2022-08-03T05:41:01;0.00;;;0.00;;
15841;SDS011;8021;48.022;11.812;2022-08-03T05:43:50;0.00;;;0.00;;
15841;SDS011;8021;48.022;11.812;2022-08-03T05:46:17;0.00;;;0.00;;
15841;SDS011;8021;48.022;11.812;2022-08-03T05:48:45;0.00;;;0.00;;
15841;SDS011;8021;48.022;11.812;2022-08-03T05:51:13;0.10;;;0.10;;
15841;SDS011;8021;48.022;11.812;2022-08-03T05:53:41;0.03;;;0.03;;
15841;SDS011;8021;48.022;11.812;2022-08-03T05:56:09;0.10;;;0.10;;
15841;SDS011;8021;48.022;11.812;2022-08-03T05:58:40;0.00;;;0.00;;
15841;SDS011;8021;48.022;11.812;2022-08-03T06:01:10;0.10;;;0.10;;
15841;SDS011;8021;48.022;11.812;2022-08-03T06:03:37;0.10;;;0.10;;
15841;SDS011;8021;48.022;11.812;2022-08-03T06:06:05;0.10;;;0.10;;
15841;SDS011;8021;48.022;11.812;2022-08-03T06:08:33;0.00;;;0.00;;
15841;SDS011;8021;48.022;11.812;2022-08-03T06:11:00;0.00;;;0.00;;
15841;SDS011;8021;48.022;11.812;2022-08-03T06:13:28;0.00;;;0.00;;
15841;SDS011;8021;48.022;11.812;2022-08-03T06:15:55;0.00;;;0.00;;
15841;SDS011;8021;48.022;11.812;2022-08-03T06:18:24;0.00;;;0.00;;
15841;SDS011;8021;48.022;11.812;2022-08-03T06:20:52;0.00;;;0.00;;
15841;SDS011;8021;48.022;11.812;2022-08-03T06:23:20;0.00;;;0.00;;
15841;SDS011;8021;48.022;11.812;2022-08-03T06:26:08;0.00;;;0.00;;
15841;SDS011;8021;48.022;11.812;2022-08-03T06:28:38;0.00;;;0.00;;
15841;SDS011;8021;48.022;11.812;2022-08-03T06:31:19;0.00;;;0.00;;
15841;SDS011;8021;48.022;11.812;2022-08-03T06:33:49;0.00;;;0.00;;
15841;SDS011;8021;48.022;11.812;2022-08-03T06:36:37;0.00;;;0.00;;
15841;SDS011;8021;48.022;11.812;2022-08-03T06:39:04;0.00;;;0.00;;
15841;SDS011;8021;48.022;11.812;2022-08-03T06:41:33;0.00;;;0.00;;
15841;SDS011;8021;48.022;11.812;2022-08-03T06:44:06;0.00;;;0.00;;
15841;SDS011;8021;48.022;11.812;2022-08-03T06:46:35;0.00;;;0.00;;
15841;SDS011;8021;48.022;11.812;2022-08-03T06:49:04;0.00;;;0.00;;
15841;SDS011;8021;48.022;11.812;2022-08-03T06:51:32;0.00;;;0.00;;
15841;SDS011;8021;48.022;11.812;2022-08-03T06:54:20;0.00;;;0.00;;
15841;SDS011;8021;48.022;11.812;2022-08-03T06:56:49;0.00;;;0.00;;
15841;SDS011;8021;48.022;11.812;2022-08-03T06:59:17;0.00;;;0.00;;
15841;SDS011;8021;48.022;11.812;2022-08-03T07:02:04;0.00;;;0.00;;
15841;SDS011;8021;48.022;11.812;2022-08-03T07:04:33;0.00;;;0.00;;
15841;SDS011;8021;48.022;11.812;2022-08-03T07:07:01;0.00;;;0.00;;
15841;SDS011;8021;48.022;11.812;2022-08-03T07:09:29;0.00;;;0.00;;
15841;SDS011;8021;48.022;11.812;2022-08-03T07:11:57;0.00;;;0.00;;
15841;SDS011;8021;48.022;11.812;2022-08-03T07:14:27;0.00;;;0.00;;
15841;SDS011;8021;48.022;11.812;2022-08-03T07:16:56;0.00;;;0.00;;
15841;SDS011;8021;48.022;11.812;2022-08-03T07:19:23;0.00;;;0.00;;
15841;SDS011;8021;48.022;11.812;2022-08-03T07:21:52;0.00;;;0.00;;
15841;SDS011;8021;48.022;11.812;2022-08-03T07:24:27;0.00;;;0.00;;
15841;SDS011;8021;48.022;11.812;2022-08-03T07:26:55;0.00;;;0.00;;
15841;SDS011;8021;48.022;11.812;2022-08-03T07:29:22;0.00;;;0.00;;
15841;SDS011;8021;48.022;11.812;2022-08-03T07:31:50;0.00;;;0.00;;
15841;SDS011;8021;48.022;11.812;2022-08-03T07:34:18;0.00;;;0.00;;
15841;SDS011;8021;48.022;11.812;2022-08-03T07:36:45;0.00;;;0.00;;
15841;SDS011;8021;48.022;11.812;2022-08-03T07:39:14;0.00;;;0.00;;
15841;SDS011;8021;48.022;11.812;2022-08-03T07:41:43;0.00;;;0.00;;
15841;SDS011;8021;48.022;11.812;2022-08-03T07:44:11;0.00;;;0.00;;
15841;SDS011;8021;48.022;11.812;2022-08-03T07:46:39;0.00;;;0.00;;
15841;SDS011;8021;48.022;11.812;2022-08-03T07:49:07;0.00;;;0.00;;
15841;SDS011;8021;48.022;11.812;2022-08-03T07:51:35;0.00;;;0.00;;
15841;SDS011;8021;48.022;11.812;2022-08-03T07:54:04;0.00;;;0.00;;
15841;SDS011;8021;48.022;11.812;2022-08-03T07:56:34;0.00;;;0.00;;
15841;SDS011;8021;48.022;11.812;2022-08-03T07:59:01;0.00;;;0.00;;
15841;SDS011;8021;48.022;11.812;2022-08-03T08:01:29;0.00;;;0.00;;
15841;SDS011;8021;48.022;11.812;2022-08-03T08:03:59;0.00;;;0.00;;
15841;SDS011;8021;48.022;11.812;2022-08-03T08:06:27;0.00;;;0.00;;
15841;SDS011;8021;48.022;11.812;2022-08-03T08:08:54;0.00;;;0.00;;
15841;SDS011;8021;48.022;11.812;2022-08-03T08:11:26;0.00;;;0.00;;
15841;SDS011;8021;48.022;11.812;2022-08-03T08:13:55;0.00;;;0.00;;
15841;SDS011;8021;48.022;11.812;2022-08-03T08:16:23;0.00;;;0.00;;
15841;SDS011;8021;48.022;11.812;2022-08-03T08:18:52;0.00;;;0.00;;
15841;SDS011;8021;48.022;11.812;2022-08-03T08:21:19;0.00;;;0.00;;
15841;SDS011;8021;48.022;11.812;2022-08-03T08:23:47;0.00;;;0.00;;
15841;SDS011;8021;48.022;11.812;2022-08-03T08:26:23;0.00;;;0.00;;
15841;SDS011;8021;48.022;11.812;2022-08-03T08:28:50;0.00;;;0.00;;
15841;SDS011;8021;48.022;11.812;2022-08-03T08:31:20;0.00;;;0.00;;
15841;SDS011;8021;48.022;11.812;2022-08-03T08:33:47;0.00;;;0.00;;
15841;SDS011;8021;48.022;11.812;2022-08-03T08:36:31;0.00;;;0.00;;
15841;SDS011;8021;48.022;11.812;2022-08-03T08:38:59;0.00;;;0.00;;
15841;SDS011;8021;48.022;11.812;2022-08-03T08:41:27;0.00;;;0.00;;
15841;SDS011;8021;48.022;11.812;2022-08-03T08:43:57;0.00;;;0.00;;
15841;SDS011;8021;48.022;11.812;2022-08-03T08:46:27;0.00;;;0.00;;
15841;SDS011;8021;48.022;11.812;2022-08-03T08:48:56;0.00;;;0.00;;
15841;SDS011;8021;48.022;11.812;2022-08-03T08:51:29;0.00;;;0.00;;
15841;SDS011;8021;48.022;11.812;2022-08-03T08:54:19;0.00;;;0.00;;
15841;SDS011;8021;48.022;11.812;2022-08-03T08:56:47;0.00;;;0.00;;
15841;SDS011;8021;48.022;11.812;2022-08-03T08:59:15;0.00;;;0.00;;
15841;SDS011;8021;48.022;11.812;2022-08-03T09:01:46;0.00;;;0.00;;
15841;SDS011;8021;48.022;11.812;2022-08-03T09:04:14;0.00;;;0.00;;
15841;SDS011;8021;48.022;11.812;2022-08-03T09:06:42;0.00;;;0.00;;
15841;SDS011;8021;48.022;11.812;2022-08-03T09:09:30;0.00;;;0.00;;
15841;SDS011;8021;48.022;11.812;2022-08-03T09:12:18;0.00;;;0.00;;
15841;SDS011;8021;48.022;11.812;2022-08-03T09:15:18;0.00;;;0.00;;
15841;SDS011;8021;48.022;11.812;2022-08-03T09:17:48;0.00;;;0.00;;
15841;SDS011;8021;48.022;11.812;2022-08-03T09:20:17;0.00;;;0.00;;
15841;SDS011;8021;48.022;11.812;2022-08-03T09:22:51;0.00;;;0.00;;
15841;SDS011;8021;48.022;11.812;2022-08-03T09:25:25;0.00;;;0.00;;
15841;SDS011;8021;48.022;11.812;2022-08-03T09:27:53;0.00;;;0.00;;
15841;SDS011;8021;48.022;11.812;2022-08-03T09:30:20;0.00;;;0.00;;
15841;SDS011;8021;48.022;11.812;2022-08-03T09:33:01;0.00;;;0.00;;
15841;SDS011;8021;48.022;11.812;2022-08-03T09:35:28;0.00;;;0.00;;
15841;SDS011;8021;48.022;11.812;2022-08-03T09:38:16;0.10;;;0.00;;
15841;SDS011;8021;48.022;11.812;2022-08-03T09:40:44;0.10;;;0.00;;
15841;SDS011;8021;48.022;11.812;2022-08-03T09:43:13;0.00;;;0.00;;
15841;SDS011;8021;48.022;11.812;2022-08-03T09:45:41;0.00;;;0.00;;
15841;SDS011;8021;48.022;11.812;2022-08-03T09:48:26;0.00;;;0.00;;
15841;SDS011;8021;48.022;11.812;2022-08-03T09:50:55;0.00;;;0.00;;
15841;SDS011;8021;48.022;11.812;2022-08-03T09:53:43;0.00;;;0.00;;
15841;SDS011;8021;48.022;11.812;2022-08-03T09:56:35;0.00;;;0.00;;
15841;SDS011;8021;48.022;11.812;2022-08-03T09:59:03;0.05;;;0.05;;
15841;SDS011;8021;48.022;11.812;2022-08-03T10:01:31;0.00;;;0.00;;
15841;SDS011;8021;48.022;11.812;2022-08-03T10:04:00;0.10;;;0.10;;
15841;SDS011;8021;48.022;11.812;2022-08-03T10:06:30;0.00;;;0.00;;
15841;SDS011;8021;48.022;11.812;2022-08-03T10:09:05;0.00;;;0.00;;
15841;SDS011;8021;48.022;11.812;2022-08-03T10:11:33;0.00;;;0.00;;
15841;SDS011;8021;48.022;11.812;2022-08-03T10:14:07;0.00;;;0.00;;
15841;SDS011;8021;48.022;11.812;2022-08-03T10:16:36;0.00;;;0.00;;
15841;SDS011;8021;48.022;11.812;2022-08-03T10:19:05;0.10;;;0.08;;
15841;SDS011;8021;48.022;11.812;2022-08-03T10:21:34;0.10;;;0.00;;
15841;SDS011;8021;48.022;11.812;2022-08-03T10:24:02;0.00;;;0.00;;
15841;SDS011;8021;48.022;11.812;2022-08-03T10:26:30;0.00;;;0.00;;
15841;SDS011;8021;48.022;11.812;2022-08-03T10:28:58;0.00;;;0.00;;
15841;SDS011;8021;48.022;11.812;2022-08-03T10:31:30;0.00;;;0.00;;
15841;SDS011;8021;48.022;11.812;2022-08-03T10:34:00;0.00;;;0.00;;
15841;SDS011;8021;48.022;11.812;2022-08-03T10:36:30;0.00;;;0.00;;
15841;SDS011;8021;48.022;11.812;2022-08-03T10:38:58;0.00;;;0.00;;
15841;SDS011;8021;48.022;11.812;2022-08-03T10:41:30;0.00;;;0.00;;
15841;SDS011;8021;48.022;11.812;2022-08-03T10:44:01;0.00;;;0.00;;
15841;SDS011;8021;48.022;11.812;2022-08-03T10:46:29;0.00;;;0.00;;
15841;SDS011;8021;48.022;11.812;2022-08-03T10:48:58;0.10;;;0.08;;
15841;SDS011;8021;48.022;11.812;2022-08-03T10:51:26;0.00;;;0.00;;
15841;SDS011;8021;48.022;11.812;2022-08-03T10:53:58;0.10;;;0.00;;
15841;SDS011;8021;48.022;11.812;2022-08-03T10:56:39;0.00;;;0.00;;
15841;SDS011;8021;48.022;11.812;2022-08-03T10:59:58;0.00;;;0.00;;
15841;SDS011;8021;48.022;11.812;2022-08-03T11:05:24;0.00;;;0.00;;
15841;SDS011;8021;48.022;11.812;2022-08-03T11:10:36;0.10;;;0.08;;
15841;SDS011;8021;48.022;11.812;2022-08-03T11:13:04;0.00;;;0.00;;
15841;SDS011;8021;48.022;11.812;2022-08-03T11:15:33;0.03;;;0.00;;
15841;SDS011;8021;48.022;11.812;2022-08-03T11:18:06;0.00;;;0.00;;
15841;SDS011;8021;48.022;11.812;2022-08-03T11:20:43;0.10;;;0.00;;
15841;SDS011;8021;48.022;11.812;2022-08-03T11:23:10;0.00;;;0.00;;
15841;SDS011;8021;48.022;11.812;2022-08-03T11:28:31;0.00;;;0.00;;
15841;SDS011;8021;48.022;11.812;2022-08-03T11:34:02;0.00;;;0.00;;
15841;SDS011;8021;48.022;11.812;2022-08-03T11:36:29;0.00;;;0.00;;
15841;SDS011;8021;48.022;11.812;2022-08-03T11:39:13;0.00;;;0.00;;
15841;SDS011;8021;48.022;11.812;2022-08-03T11:41:42;0.10;;;0.00;;
15841;SDS011;8021;48.022;11.812;2022-08-03T11:44:15;0.00;;;0.00;;
15841;SDS011;8021;48.022;11.812;2022-08-03T11:47:03;0.00;;;0.00;;
15841;SDS011;8021;48.022;11.812;2022-08-03T11:49:30;0.00;;;0.00;;
15841;SDS011;8021;48.022;11.812;2022-08-03T11:51:58;0.00;;;0.00;;
15841;SDS011;8021;48.022;11.812;2022-08-03T11:54:25;0.00;;;0.00;;
15841;SDS011;8021;48.022;11.812;2022-08-03T11:56:53;0.00;;;0.00;;
15841;SDS011;8021;48.022;11.812;2022-08-03T11:59:31;0.00;;;0.00;;
15841;SDS011;8021;48.022;11.812;2022-08-03T12:02:04;0.00;;;0.00;;
15841;SDS011;8021;48.022;11.812;2022-08-03T12:07:14;0.00;;;0.00;;
15841;SDS011;8021;48.022;11.812;2022-08-03T12:10:06;0.00;;;0.00;;
15841;SDS011;8021;48.022;11.812;2022-08-03T12:12:34;0.00;;;0.00;;
15841;SDS011;8021;48.022;11.812;2022-08-03T12:15:03;0.00;;;0.00;;
15841;SDS011;8021;48.022;11.812;2022-08-03T12:17:31;0.00;;;0.00;;
15841;SDS011;8021;48.022;11.812;2022-08-03T12:19:59;0.00;;;0.00;;
15841;SDS011;8021;48.022;11.812;2022-08-03T12:22:30;0.00;;;0.00;;
15841;SDS011;8021;48.022;11.812;2022-08-03T12:24:58;0.00;;;0.00;;
15841;SDS011;8021;48.022;11.812;2022-08-03T12:27:26;0.00;;;0.00;;
15841;SDS011;8021;48.022;11.812;2022-08-03T12:29:55;0.00;;;0.00;;
15841;SDS011;8021;48.022;11.812;2022-08-03T12:32:26;0.00;;;0.00;;
15841;SDS011;8021;48.022;11.812;2022-08-03T12:34:54;0.00;;;0.00;;
15841;SDS011;8021;48.022;11.812;2022-08-03T12:37:25;0.00;;;0.00;;
15841;SDS011;8021;48.022;11.812;2022-08-03T12:39:54;0.00;;;0.00;;
15841;SDS011;8021;48.022;11.812;2022-08-03T12:42:31;0.08;;;0.00;;
15841;SDS011;8021;48.022;11.812;2022-08-03T12:47:51;0.00;;;0.00;;
15841;SDS011;8021;48.022;11.812;2022-08-03T12:50:23;0.00;;;0.00;;
15841;SDS011;8021;48.022;11.812;2022-08-03T12:52:51;0.00;;;0.00;;
15841;SDS011;8021;48.022;11.812;2022-08-03T12:55:18;0.00;;;0.00;;
15841;SDS011;8021;48.022;11.812;2022-08-03T12:57:46;0.00;;;0.00;;
15841;SDS011;8021;48.022;11.812;2022-08-03T13:00:15;0.00;;;0.00;;
15841;SDS011;8021;48.022;11.812;2022-08-03T13:02:59;0.00;;;0.00;;
15841;SDS011;8021;48.022;11.812;2022-08-03T13:05:47;0.00;;;0.00;;
15841;SDS011;8021;48.022;11.812;2022-08-03T13:08:18;0.00;;;0.00;;
15841;SDS011;8021;48.022;11.812;2022-08-03T13:10:46;0.00;;;0.00;;
15841;SDS011;8021;48.022;11.812;2022-08-03T13:13:14;0.00;;;0.00;;
15841;SDS011;8021;48.022;11.812;2022-08-03T13:15:41;0.00;;;0.00;;
15841;SDS011;8021;48.022;11.812;2022-08-03T13:18:14;0.00;;;0.00;;
15841;SDS011;8021;48.022;11.812;2022-08-03T13:20:42;0.00;;;0.00;;
15841;SDS011;8021;48.022;11.812;2022-08-03T13:23:10;0.00;;;0.00;;
15841;SDS011;8021;48.022;11.812;2022-08-03T13:25:48;0.00;;;0.00;;
15841;SDS011;8021;48.022;11.812;2022-08-03T13:28:21;0.00;;;0.00;;
15841;SDS011;8021;48.022;11.812;2022-08-03T13:30:49;0.00;;;0.00;;
15841;SDS011;8021;48.022;11.812;2022-08-03T13:33:18;0.00;;;0.00;;
15841;SDS011;8021;48.022;11.812;2022-08-03T13:35:45;0.00;;;0.00;;
15841;SDS011;8021;48.022;11.812;2022-08-03T13:38:13;0.10;;;0.00;;
15841;SDS011;8021;48.022;11.812;2022-08-03T13:40:42;0.00;;;0.00;;
15841;SDS011;8021;48.022;11.812;2022-08-03T13:43:11;0.00;;;0.00;;
15841;SDS011;8021;48.022;11.812;2022-08-03T13:45:38;0.00;;;0.00;;
15841;SDS011;8021;48.022;11.812;2022-08-03T13:48:12;0.10;;;0.00;;
15841;SDS011;8021;48.022;11.812;2022-08-03T13:51:01;0.00;;;0.00;;
15841;SDS011;8021;48.022;11.812;2022-08-03T13:53:48;0.03;;;0.00;;
15841;SDS011;8021;48.022;11.812;2022-08-03T13:56:16;0.10;;;0.00;;
15841;SDS011;8021;48.022;11.812;2022-08-03T13:58:43;0.00;;;0.00;;
15841;SDS011;8021;48.022;11.812;2022-08-03T14:01:11;0.00;;;0.00;;
15841;SDS011;8021;48.022;11.812;2022-08-03T14:03:38;0.00;;;0.00;;
15841;SDS011;8021;48.022;11.812;2022-08-03T14:06:07;0.00;;;0.00;;
15841;SDS011;8021;48.022;11.812;2022-08-03T14:08:35;0.00;;;0.00;;
15841;SDS011;8021;48.022;11.812;2022-08-03T14:11:03;0.00;;;0.00;;
15841;SDS011;8021;48.022;11.812;2022-08-03T14:13:30;0.00;;;0.00;;
15841;SDS011;8021;48.022;11.812;2022-08-03T14:15:58;0.00;;;0.00;;
15841;SDS011;8021;48.022;11.812;2022-08-03T14:18:27;0.00;;;0.00;;
15841;SDS011;8021;48.022;11.812;2022-08-03T14:20:59;0.00;;;0.00;;
15841;SDS011;8021;48.022;11.812;2022-08-03T14:23:33;0.00;;;0.00;;
15841;SDS011;8021;48.022;11.812;2022-08-03T14:26:01;0.00;;;0.00;;
15841;SDS011;8021;48.022;11.812;2022-08-03T14:28:29;0.00;;;0.00;;
15841;SDS011;8021;48.022;11.812;2022-08-03T14:30:56;0.00;;;0.00;;
15841;SDS011;8021;48.022;11.812;2022-08-03T14:33:26;0.00;;;0.00;;
15841;SDS011;8021;48.022;11.812;2022-08-03T14:35:54;0.00;;;0.00;;
15841;SDS011;8021;48.022;11.812;2022-08-03T14:38:22;0.00;;;0.00;;
15841;SDS011;8021;48.022;11.812;2022-08-03T14:40:51;0.00;;;0.00;;
15841;SDS011;8021;48.022;11.812;2022-08-03T14:43:19;0.00;;;0.00;;
15841;SDS011;8021;48.022;11.812;2022-08-03T14:45:46;0.00;;;0.00;;
15841;SDS011;8021;48.022;11.812;2022-08-03T14:48:17;0.00;;;0.00;;
15841;SDS011;8021;48.022;11.812;2022-08-03T14:51:03;0.00;;;0.00;;
15841;SDS011;8021;48.022;11.812;2022-08-03T14:53:30;0.03;;;0.00;;
15841;SDS011;8021;48.022;11.812;2022-08-03T14:55:58;0.00;;;0.00;;
15841;SDS011;8021;48.022;11.812;2022-08-03T14:58:26;0.00;;;0.00;;
15841;SDS011;8021;48.022;11.812;2022-08-03T15:00:54;0.00;;;0.00;;
15841;SDS011;8021;48.022;11.812;2022-08-03T15:03:22;0.00;;;0.00;;
15841;SDS011;8021;48.022;11.812;2022-08-03T15:05:50;0.00;;;0.00;;
15841;SDS011;8021;48.022;11.812;2022-08-03T15:08:20;0.00;;;0.00;;
15841;SDS011;8021;48.022;11.812;2022-08-03T15:10:48;0.00;;;0.00;;
15841;SDS011;8021;48.022;11.812;2022-08-03T15:13:16;0.00;;;0.00;;
15841;SDS011;8021;48.022;11.812;2022-08-03T15:15:44;0.00;;;0.00;;
15841;SDS011;8021;48.022;11.812;2022-08-03T15:18:12;0.00;;;0.00;;
15841;SDS011;8021;48.022;11.812;2022-08-03T15:20:40;0.00;;;0.00;;
15841;SDS011;8021;48.022;11.812;2022-08-03T15:23:11;0.00;;;0.00;;
15841;SDS011;8021;48.022;11.812;2022-08-03T15:25:40;0.00;;;0.00;;
15841;SDS011;8021;48.022;11.812;2022-08-03T15:28:28;0.00;;;0.00;;
15841;SDS011;8021;48.022;11.812;2022-08-03T15:30:56;0.00;;;0.00;;